createdAt,value
2023-05-15T00:00:06.794Z,7.60
2023-05-15T00:02:57.553Z,8.60
2023-05-15T00:05:27.096Z,7.70
2023-05-15T00:07:55.760Z,7.90
2023-05-15T00:10:24.333Z,7.40
2023-05-15T00:12:53.512Z,6.20
2023-05-15T00:15:22.029Z,6.70
2023-05-15T00:17:51.052Z,7.50
2023-05-15T00:20:20.252Z,6.90
2023-05-15T00:22:48.741Z,7.10
2023-05-15T00:25:19.796Z,5.50
2023-05-15T00:27:48.198Z,6.60
2023-05-15T00:30:16.628Z,5.20
2023-05-15T00:32:45.677Z,7.30
2023-05-15T00:35:14.833Z,7.60
2023-05-15T00:37:43.780Z,6.00
2023-05-15T00:40:15.022Z,5.90
2023-05-15T00:42:43.696Z,4.90
2023-05-15T00:45:13.464Z,6.40
2023-05-15T00:47:43.841Z,4.90
2023-05-15T00:50:12.862Z,5.80
2023-05-15T00:52:42.193Z,5.90
2023-05-15T00:55:11.129Z,6.40
2023-05-15T00:57:41.431Z,8.60
2023-05-15T01:00:10.715Z,6.10
2023-05-15T01:02:39.845Z,6.50
2023-05-15T01:05:09.363Z,6.10
2023-05-15T01:07:45.797Z,7.10
2023-05-15T01:10:15.870Z,5.80
2023-05-15T01:12:46.619Z,5.70
2023-05-15T01:15:15.130Z,9.10
2023-05-15T01:17:43.623Z,5.90
2023-05-15T01:20:12.830Z,5.70
2023-05-15T01:22:46.972Z,8.10
2023-05-15T01:25:54.557Z,7.00
2023-05-15T01:28:26.774Z,6.20
2023-05-15T01:30:56.921Z,5.60
2023-05-15T01:33:29.157Z,6.90
2023-05-15T01:35:58.115Z,7.90
2023-05-15T01:38:38.732Z,8.10
2023-05-15T01:41:16.241Z,7.40
2023-05-15T01:43:48.873Z,5.70
2023-05-15T01:46:20.485Z,6.10
2023-05-15T01:48:51.405Z,7.90
2023-05-15T01:51:21.382Z,7.40
2023-05-15T01:53:51.257Z,7.50
2023-05-15T01:56:20.533Z,8.30
2023-05-15T01:58:49.836Z,7.70
2023-05-15T02:01:18.861Z,8.10
2023-05-15T02:03:47.603Z,9.60
2023-05-15T02:06:16.784Z,8.00
2023-05-15T02:08:47.179Z,9.30
2023-05-15T02:11:15.888Z,8.30
2023-05-15T02:13:44.978Z,7.50
2023-05-15T02:16:13.628Z,7.60
2023-05-15T02:18:43.358Z,6.80
2023-05-15T02:21:12.878Z,9.10
2023-05-15T02:23:41.269Z,7.90
2023-05-15T02:26:24.259Z,22.60
2023-05-15T02:29:10.734Z,8.30
2023-05-15T02:31:46.468Z,8.60
2023-05-15T02:34:20.700Z,8.10
2023-05-15T02:36:51.528Z,6.40
2023-05-15T02:39:23.771Z,8.20
2023-05-15T02:42:23.819Z,8.70
2023-05-15T02:44:54.000Z,9.00
2023-05-15T02:47:23.760Z,7.60
2023-05-15T02:49:52.482Z,8.40
2023-05-15T02:52:23.080Z,9.50
2023-05-15T02:54:52.210Z,7.40
2023-05-15T02:57:21.722Z,7.70
2023-05-15T02:59:50.411Z,7.70
2023-05-15T03:02:18.892Z,7.30
2023-05-15T03:04:48.119Z,8.00
2023-05-15T03:07:17.194Z,10.10
2023-05-15T03:09:45.643Z,7.50
2023-05-15T03:12:14.221Z,7.40
2023-05-15T03:14:42.629Z,9.70
2023-05-15T03:17:11.160Z,10.20
2023-05-15T03:19:39.764Z,9.60
2023-05-15T03:22:08.863Z,9.70
2023-05-15T03:24:37.835Z,12.20
2023-05-15T03:27:06.852Z,10.70
2023-05-15T03:29:35.911Z,8.40
2023-05-15T03:32:04.459Z,7.10
2023-05-15T03:34:33.019Z,8.60
2023-05-15T03:37:02.209Z,8.20
2023-05-15T03:39:30.794Z,9.30
2023-05-15T03:41:59.537Z,8.20
2023-05-15T03:44:28.281Z,8.90
2023-05-15T03:46:57.039Z,8.90
2023-05-15T03:49:25.856Z,9.70
2023-05-15T03:51:54.358Z,9.00
2023-05-15T03:54:23.981Z,9.20
2023-05-15T03:56:53.070Z,9.00
2023-05-15T03:59:21.554Z,8.50
2023-05-15T04:02:03.584Z,10.80
2023-05-15T04:04:33.196Z,10.00
2023-05-15T04:07:02.739Z,11.20
2023-05-15T04:09:31.127Z,9.00
2023-05-15T04:11:59.729Z,10.40
2023-05-15T04:14:28.706Z,10.40
2023-05-15T04:16:57.725Z,10.00
2023-05-15T04:19:26.718Z,9.30
2023-05-15T04:21:55.542Z,9.20
2023-05-15T04:24:24.572Z,10.90
2023-05-15T04:26:53.663Z,9.20
2023-05-15T04:29:22.176Z,9.30
2023-05-15T04:31:50.696Z,10.90
2023-05-15T04:34:19.327Z,10.00
2023-05-15T04:36:48.730Z,9.80
2023-05-15T04:39:17.766Z,9.30
2023-05-15T04:41:46.973Z,11.70
2023-05-15T04:44:15.473Z,20.90
2023-05-15T04:46:44.411Z,29.40
2023-05-15T04:49:12.916Z,14.20
2023-05-15T04:51:42.340Z,14.10
2023-05-15T04:54:11.011Z,14.00
2023-05-15T04:56:39.854Z,13.80
2023-05-15T04:59:10.036Z,15.00
2023-05-15T05:01:38.753Z,14.60
2023-05-15T05:04:07.344Z,14.20
2023-05-15T05:06:35.910Z,15.00
2023-05-15T05:09:05.011Z,15.80
2023-05-15T05:11:34.491Z,15.50
2023-05-15T05:14:04.034Z,15.30
2023-05-15T05:16:32.798Z,11.80
2023-05-15T05:19:01.118Z,17.70
2023-05-15T05:21:29.755Z,16.90
2023-05-15T05:23:58.785Z,13.10
2023-05-15T05:26:27.617Z,18.70
2023-05-15T05:28:56.087Z,16.50
2023-05-15T05:31:24.663Z,17.00
2023-05-15T05:33:53.196Z,20.40
2023-05-15T05:36:22.383Z,16.00
2023-05-15T05:38:51.919Z,13.50
2023-05-15T05:41:20.439Z,13.10
2023-05-15T05:43:49.107Z,15.20
2023-05-15T05:46:18.163Z,14.70
2023-05-15T05:48:47.231Z,12.80
2023-05-15T05:51:15.766Z,15.20
2023-05-15T05:53:44.595Z,14.00
2023-05-15T05:56:12.985Z,14.00
2023-05-15T05:58:42.060Z,17.10
2023-05-15T06:01:11.445Z,12.30
2023-05-15T06:03:40.236Z,14.60
2023-05-15T06:06:09.366Z,11.60
2023-05-15T06:08:38.333Z,13.60
2023-05-15T06:11:06.833Z,12.40
2023-05-15T06:13:35.260Z,12.30
2023-05-15T06:16:04.016Z,12.30
2023-05-15T06:18:32.380Z,13.10
2023-05-15T06:21:00.927Z,12.60
2023-05-15T06:23:29.364Z,13.00
2023-05-15T06:25:58.948Z,17.00
2023-05-15T06:28:27.463Z,13.70
2023-05-15T06:30:55.937Z,9.00
2023-05-15T06:33:24.544Z,12.30
2023-05-15T06:35:53.101Z,9.70
2023-05-15T06:38:21.585Z,9.60
2023-05-15T06:40:50.076Z,9.20
2023-05-15T06:43:19.246Z,9.90
2023-05-15T06:45:48.156Z,10.10
2023-05-15T06:48:17.175Z,10.40
2023-05-15T06:50:46.018Z,10.50
2023-05-15T06:53:14.772Z,8.80
2023-05-15T06:55:43.617Z,10.00
2023-05-15T06:58:12.907Z,8.70
2023-05-15T07:00:41.627Z,9.60
2023-05-15T07:03:10.336Z,10.80
2023-05-15T07:05:38.936Z,8.60
2023-05-15T07:08:07.508Z,8.60
2023-05-15T07:10:36.267Z,8.30
2023-05-15T07:13:05.206Z,9.80
2023-05-15T07:15:33.675Z,9.80
2023-05-15T07:18:02.269Z,10.40
2023-05-15T07:20:32.697Z,8.30
2023-05-15T07:23:04.003Z,9.30
2023-05-15T07:25:32.768Z,9.90
2023-05-15T07:28:01.191Z,8.60
2023-05-15T07:30:29.844Z,8.10
2023-05-15T07:32:58.414Z,7.50
2023-05-15T07:35:27.316Z,7.20
2023-05-15T07:37:56.089Z,10.30
2023-05-15T07:40:25.018Z,9.10
2023-05-15T07:42:54.431Z,7.60
2023-05-15T07:45:23.649Z,8.80
2023-05-15T07:47:52.958Z,11.50
2023-05-15T07:50:21.716Z,9.70
2023-05-15T07:52:50.961Z,11.20
2023-05-15T07:55:19.645Z,11.80
2023-05-15T07:57:53.358Z,10.20
2023-05-15T08:00:22.566Z,12.20
2023-05-15T08:02:51.439Z,11.00
2023-05-15T08:05:19.883Z,11.90
2023-05-15T08:07:49.258Z,13.90
2023-05-15T08:10:18.784Z,11.70
2023-05-15T08:12:47.671Z,11.30
2023-05-15T08:15:16.299Z,9.40
2023-05-15T08:17:45.400Z,11.90
2023-05-15T08:20:14.647Z,10.80
2023-05-15T08:22:43.093Z,12.30
2023-05-15T08:25:12.078Z,10.60
2023-05-15T08:27:40.662Z,16.30
2023-05-15T08:30:09.805Z,13.40
2023-05-15T08:32:38.162Z,12.20
2023-05-15T08:35:07.385Z,10.50
2023-05-15T08:37:36.637Z,11.90
2023-05-15T08:40:07.054Z,11.70
2023-05-15T08:42:49.264Z,9.70
2023-05-15T08:45:18.239Z,11.70
2023-05-15T08:47:47.452Z,10.00
2023-05-15T08:50:18.184Z,8.70
2023-05-15T08:52:47.387Z,11.30
2023-05-15T08:55:16.496Z,11.40
2023-05-15T08:57:45.524Z,13.80
2023-05-15T09:00:15.136Z,12.50
2023-05-15T09:02:44.271Z,12.90
2023-05-15T09:05:13.302Z,12.10
2023-05-15T09:07:45.226Z,13.00
2023-05-15T09:10:14.589Z,11.90
2023-05-15T09:12:44.842Z,14.40
2023-05-15T09:15:14.462Z,13.40
2023-05-15T09:17:43.856Z,13.60
2023-05-15T09:20:34.760Z,13.10
2023-05-15T09:23:05.281Z,12.80
2023-05-15T09:25:35.431Z,12.90
2023-05-15T09:28:04.565Z,14.90
2023-05-15T09:30:34.963Z,14.30
2023-05-15T09:33:04.125Z,14.50
2023-05-15T09:35:37.718Z,12.10
2023-05-15T09:38:12.981Z,18.30
2023-05-15T09:40:41.655Z,14.80
2023-05-15T09:43:12.353Z,17.70
2023-05-15T09:45:41.530Z,16.60
2023-05-15T09:48:12.149Z,15.80
2023-05-15T09:50:41.957Z,18.00
2023-05-15T09:53:12.784Z,15.90
2023-05-15T09:55:42.010Z,17.50
2023-05-15T09:58:14.572Z,17.90
2023-05-15T10:00:48.540Z,16.40
2023-05-15T10:03:21.245Z,15.20
2023-05-15T10:05:49.985Z,20.30
2023-05-15T10:08:27.472Z,17.30
2023-05-15T10:11:00.030Z,15.50
2023-05-15T10:13:29.592Z,17.00
2023-05-15T10:15:58.082Z,15.80
2023-05-15T10:18:30.026Z,16.30
2023-05-15T10:21:01.584Z,20.00
2023-05-15T10:23:31.539Z,18.70
2023-05-15T10:26:04.512Z,18.70
2023-05-15T10:28:33.906Z,15.10
2023-05-15T10:31:02.664Z,19.90
2023-05-15T10:33:32.517Z,13.00
2023-05-15T10:36:01.650Z,20.50
2023-05-15T10:38:31.981Z,16.20
2023-05-15T10:41:15.708Z,16.30
2023-05-15T10:43:46.323Z,19.70
2023-05-15T10:46:15.610Z,12.90
2023-05-15T10:48:44.248Z,20.80
2023-05-15T10:51:16.663Z,18.00
2023-05-15T10:53:46.152Z,28.80
2023-05-15T10:56:17.022Z,30.50
2023-05-15T10:58:49.380Z,30.50
2023-05-15T11:01:34.250Z,30.20
2023-05-15T11:04:05.930Z,26.40
2023-05-15T11:06:35.390Z,30.50
2023-05-15T11:09:22.077Z,35.10
2023-05-15T11:12:00.679Z,32.70
2023-05-15T11:14:31.639Z,36.80
2023-05-15T11:17:00.973Z,31.40
2023-05-15T11:19:29.577Z,38.20
2023-05-15T11:21:58.644Z,34.40
2023-05-15T11:24:47.284Z,38.70
2023-05-15T11:27:22.969Z,39.10
2023-05-15T11:30:10.412Z,42.00
2023-05-15T11:32:48.476Z,40.20
2023-05-15T11:35:22.817Z,42.80
2023-05-15T11:37:59.019Z,44.80
2023-05-15T11:40:29.144Z,45.00
2023-05-15T11:43:02.513Z,45.10
2023-05-15T11:45:32.946Z,48.50
2023-05-15T11:48:02.938Z,44.50
2023-05-15T11:50:33.433Z,47.50
2023-05-15T11:53:03.659Z,45.00
2023-05-15T11:55:36.779Z,45.30
2023-05-15T11:58:06.154Z,44.40
2023-05-15T12:00:34.674Z,38.30
2023-05-15T12:03:06.677Z,45.70
2023-05-15T12:05:35.585Z,43.20
2023-05-15T12:08:04.275Z,42.50
2023-05-15T12:10:32.770Z,43.10
2023-05-15T12:13:01.284Z,45.30
2023-05-15T12:15:30.269Z,42.70
2023-05-15T12:17:58.822Z,41.70
2023-05-15T12:20:27.602Z,36.00
2023-05-15T12:22:56.265Z,37.70
2023-05-15T12:25:24.944Z,35.50
2023-05-15T12:27:53.594Z,32.90
2023-05-15T12:30:22.712Z,39.20
2023-05-15T12:32:51.993Z,32.70
2023-05-15T12:35:20.697Z,34.30
2023-05-15T12:37:49.096Z,37.00
2023-05-15T12:40:20.715Z,39.60
2023-05-15T12:42:53.663Z,37.40
2023-05-15T12:45:22.832Z,42.00
2023-05-15T12:47:51.548Z,40.30
2023-05-15T12:50:21.632Z,42.90
2023-05-15T12:52:50.673Z,42.70
2023-05-15T12:55:23.070Z,42.90
2023-05-15T12:57:52.321Z,39.40
2023-05-15T13:00:21.947Z,41.70
2023-05-15T13:02:54.494Z,37.30
2023-05-15T13:05:24.096Z,39.00
2023-05-15T13:07:53.380Z,42.20
2023-05-15T13:10:24.077Z,36.90
2023-05-15T13:12:53.881Z,35.00
2023-05-15T13:15:33.755Z,39.90
2023-05-15T13:18:07.239Z,43.20
2023-05-15T13:20:36.871Z,44.60
2023-05-15T13:23:05.688Z,41.00
2023-05-15T13:25:34.224Z,34.00
2023-05-15T13:28:04.082Z,32.40
2023-05-15T13:30:34.352Z,23.70
2023-05-15T13:33:04.248Z,24.00
2023-05-15T13:35:32.966Z,20.80
2023-05-15T13:38:01.727Z,23.90
2023-05-15T13:40:31.410Z,19.50
2023-05-15T13:42:59.842Z,20.80
2023-05-15T13:45:29.097Z,17.50
2023-05-15T13:47:57.596Z,20.00
2023-05-15T13:50:26.593Z,20.10
2023-05-15T13:52:55.112Z,19.80
2023-05-15T13:55:24.156Z,16.20
2023-05-15T13:57:53.545Z,23.80
2023-05-15T14:00:22.110Z,15.50
2023-05-15T14:02:50.969Z,16.90
2023-05-15T14:05:19.587Z,17.00
2023-05-15T14:07:48.223Z,16.10
2023-05-15T14:10:16.509Z,21.60
2023-05-15T14:12:44.898Z,21.50
2023-05-15T14:15:13.648Z,22.60
2023-05-15T14:17:43.407Z,19.20
2023-05-15T14:20:12.097Z,21.40
2023-05-15T14:22:40.847Z,25.00
2023-05-15T14:25:09.825Z,27.30
2023-05-15T14:27:38.310Z,28.40
2023-05-15T14:30:07.416Z,25.20
2023-05-15T14:32:35.918Z,25.60
2023-05-15T14:35:04.466Z,29.70
2023-05-15T14:37:32.886Z,29.50
2023-05-15T14:40:01.280Z,31.70
2023-05-15T14:42:29.847Z,27.90
2023-05-15T14:44:58.939Z,25.90
2023-05-15T14:47:28.755Z,28.20
2023-05-15T14:49:57.257Z,25.80
2023-05-15T14:52:25.798Z,27.00
2023-05-15T14:55:08.058Z,22.60
2023-05-15T14:57:38.521Z,23.80
2023-05-15T15:00:08.398Z,24.50
2023-05-15T15:02:37.253Z,23.80
2023-05-15T15:05:06.550Z,27.30
2023-05-15T15:07:54.647Z,28.30
2023-05-15T15:10:23.288Z,26.20
2023-05-15T15:12:52.237Z,30.20
2023-05-15T15:15:21.476Z,28.50
2023-05-15T15:17:51.047Z,19.90
2023-05-15T15:20:20.882Z,19.20
2023-05-15T15:22:50.199Z,16.00
2023-05-15T15:25:19.203Z,18.70
2023-05-15T15:27:48.442Z,16.90
2023-05-15T15:30:16.919Z,22.40
2023-05-15T15:32:46.204Z,23.20
2023-05-15T15:35:15.342Z,21.80
2023-05-15T15:37:43.878Z,19.60
2023-05-15T15:40:13.148Z,19.40
2023-05-15T15:42:41.628Z,18.50
2023-05-15T15:45:10.076Z,23.20
2023-05-15T15:47:38.647Z,19.30
2023-05-15T15:50:07.166Z,17.50
2023-05-15T15:52:35.667Z,19.20
2023-05-15T15:55:04.177Z,15.90
2023-05-15T15:57:33.066Z,17.60
2023-05-15T16:00:01.407Z,22.80
2023-05-15T16:02:29.937Z,19.30
2023-05-15T16:04:58.458Z,21.10
2023-05-15T16:07:27.036Z,24.10
2023-05-15T16:10:04.153Z,23.70
2023-05-15T16:12:40.929Z,23.30
2023-05-15T16:15:21.457Z,21.70
2023-05-15T16:17:53.058Z,22.60
2023-05-15T16:20:22.190Z,22.70
2023-05-15T16:22:50.626Z,23.40
2023-05-15T16:25:19.456Z,23.10
2023-05-15T16:27:47.923Z,22.60
2023-05-15T16:30:16.513Z,23.70
2023-05-15T16:32:45.857Z,24.40
2023-05-15T16:35:14.409Z,22.90
2023-05-15T16:37:42.915Z,24.80
2023-05-15T16:40:11.662Z,27.10
2023-05-15T16:42:41.736Z,25.30
2023-05-15T16:45:10.850Z,28.40
2023-05-15T16:47:40.858Z,28.30
2023-05-15T16:50:09.542Z,29.00
2023-05-15T16:52:39.236Z,27.90
2023-05-15T16:55:10.710Z,28.10
2023-05-15T16:57:39.221Z,27.60
2023-05-15T17:00:08.866Z,25.60
2023-05-15T17:02:37.516Z,24.50
2023-05-15T17:05:09.332Z,19.20
2023-05-15T17:07:38.364Z,19.90
2023-05-15T17:10:08.198Z,19.90
2023-05-15T17:12:37.429Z,20.60
2023-05-15T17:15:06.468Z,20.20
2023-05-15T17:17:35.630Z,21.20
2023-05-15T17:20:04.889Z,21.40
2023-05-15T17:22:33.442Z,24.50
2023-05-15T17:25:01.968Z,24.80
2023-05-15T17:27:30.379Z,26.30
2023-05-15T17:29:59.384Z,29.80
2023-05-15T17:32:27.868Z,28.50
2023-05-15T17:34:56.492Z,31.30
2023-05-15T17:37:24.899Z,31.10
2023-05-15T17:39:55.042Z,34.70
2023-05-15T17:42:28.714Z,33.60
2023-05-15T17:44:57.910Z,36.50
2023-05-15T17:47:26.563Z,37.80
2023-05-15T17:49:55.729Z,41.80
2023-05-15T17:52:24.610Z,41.70
2023-05-15T17:54:53.104Z,44.10
2023-05-15T17:57:21.674Z,45.50
2023-05-15T17:59:50.243Z,56.30
2023-05-15T18:02:18.803Z,48.60
2023-05-15T18:04:47.174Z,50.80
2023-05-15T18:07:16.156Z,48.80
2023-05-15T18:09:44.532Z,49.80
2023-05-15T18:12:13.046Z,50.40
2023-05-15T18:14:41.472Z,52.00
2023-05-15T18:17:10.831Z,50.90
2023-05-15T18:19:40.451Z,51.00
2023-05-15T18:22:08.868Z,52.80
2023-05-15T18:24:37.876Z,52.50
2023-05-15T18:27:06.316Z,53.30
2023-05-15T18:29:35.549Z,54.40
2023-05-15T18:32:04.881Z,51.30
2023-05-15T18:34:34.993Z,49.70
2023-05-15T18:37:03.918Z,50.00
2023-05-15T18:39:32.395Z,49.30
2023-05-15T18:42:00.955Z,50.80
2023-05-15T18:44:29.638Z,48.40
2023-05-15T18:46:58.384Z,46.00
2023-05-15T18:49:28.102Z,47.10
2023-05-15T18:51:56.980Z,47.60
2023-05-15T18:54:26.496Z,43.50
2023-05-15T18:56:55.002Z,44.90
2023-05-15T18:59:23.885Z,42.80
2023-05-15T19:01:54.316Z,44.00
2023-05-15T19:04:22.905Z,41.10
2023-05-15T19:06:51.375Z,40.10
2023-05-15T19:09:20.080Z,42.70
2023-05-15T19:11:52.053Z,42.10
2023-05-15T19:14:20.498Z,38.90
2023-05-15T19:16:48.896Z,38.00
2023-05-15T19:19:18.010Z,37.50
2023-05-15T19:21:47.748Z,37.00
2023-05-15T19:24:16.232Z,35.40
2023-05-15T19:26:45.180Z,36.20
2023-05-15T19:29:14.170Z,34.80
2023-05-15T19:31:44.572Z,37.40
2023-05-15T19:34:14.615Z,34.20
2023-05-15T19:36:46.196Z,34.00
2023-05-15T19:39:15.071Z,33.30
2023-05-15T19:41:43.468Z,34.60
2023-05-15T19:44:12.296Z,33.90
2023-05-15T19:46:40.934Z,34.10
2023-05-15T19:49:11.078Z,33.50
2023-05-15T19:51:41.642Z,34.20
2023-05-15T19:54:11.519Z,38.00
2023-05-15T19:56:40.057Z,41.60
2023-05-15T19:59:08.485Z,38.80
2023-05-15T20:01:37.102Z,37.00
2023-05-15T20:04:05.898Z,38.90
2023-05-15T20:06:35.056Z,37.60
2023-05-15T20:09:05.000Z,35.70
2023-05-15T20:11:33.759Z,37.40
2023-05-15T20:14:02.296Z,35.70
2023-05-15T20:16:31.071Z,36.60
2023-05-15T20:19:00.235Z,35.10
2023-05-15T20:21:28.924Z,34.80
2023-05-15T20:23:58.274Z,35.10
2023-05-15T20:26:26.768Z,34.80
2023-05-15T20:28:55.250Z,34.00
2023-05-15T20:31:23.627Z,32.30
2023-05-15T20:33:52.582Z,32.90
2023-05-15T20:36:23.057Z,31.80
2023-05-15T20:38:52.875Z,31.10
2023-05-15T20:41:23.243Z,29.70
2023-05-15T20:43:51.878Z,26.60
2023-05-15T20:46:22.142Z,27.90
2023-05-15T20:48:50.794Z,24.90
2023-05-15T20:51:19.165Z,24.10
2023-05-15T20:53:47.967Z,23.20
2023-05-15T20:56:16.451Z,24.10
2023-05-15T20:58:44.947Z,23.60
2023-05-15T21:01:13.450Z,22.50
2023-05-15T21:03:42.785Z,22.80
2023-05-15T21:06:11.397Z,23.70
2023-05-15T21:08:39.811Z,24.60
2023-05-15T21:11:08.312Z,26.00
2023-05-15T21:13:36.715Z,26.60
2023-05-15T21:16:05.834Z,25.50
2023-05-15T21:18:34.361Z,26.10
2023-05-15T21:21:07.383Z,27.40
2023-05-15T21:23:37.016Z,25.60
2023-05-15T21:26:06.156Z,24.60
2023-05-15T21:28:34.801Z,25.50
2023-05-15T21:31:09.586Z,25.50
2023-05-15T21:33:38.314Z,24.90
2023-05-15T21:36:06.949Z,25.80
2023-05-15T21:38:35.543Z,27.40
2023-05-15T21:41:04.329Z,24.30
2023-05-15T21:43:32.758Z,22.50
2023-05-15T21:46:01.246Z,23.80
2023-05-15T21:48:29.880Z,22.20
2023-05-15T21:50:59.219Z,20.70
2023-05-15T21:53:27.555Z,20.60
2023-05-15T21:55:58.893Z,21.10
2023-05-15T21:58:27.535Z,19.70
2023-05-15T22:00:56.220Z,19.60
2023-05-15T22:03:25.030Z,19.70
2023-05-15T22:05:53.968Z,18.90
2023-05-15T22:08:22.619Z,19.80
2023-05-15T22:10:53.600Z,22.90
2023-05-15T22:13:22.053Z,19.70
2023-05-15T22:15:50.505Z,18.80
2023-05-15T22:18:18.955Z,18.90
2023-05-15T22:20:50.747Z,19.40
2023-05-15T22:23:19.646Z,18.80
2023-05-15T22:25:49.547Z,18.90
2023-05-15T22:28:18.321Z,20.10
2023-05-15T22:30:46.830Z,20.80
2023-05-15T22:33:15.275Z,18.30
2023-05-15T22:35:44.537Z,20.00
2023-05-15T22:38:13.913Z,18.40
2023-05-15T22:40:42.442Z,18.60
2023-05-15T22:43:11.486Z,17.80
2023-05-15T22:45:40.336Z,17.90
2023-05-15T22:48:09.783Z,17.70
2023-05-15T22:50:38.279Z,18.20
2023-05-15T22:53:06.631Z,19.90
2023-05-15T22:55:35.039Z,20.30
2023-05-15T22:58:04.401Z,19.50
2023-05-15T23:00:33.194Z,20.20
2023-05-15T23:03:01.694Z,20.10
2023-05-15T23:05:30.192Z,19.60
2023-05-15T23:07:58.790Z,20.10
2023-05-15T23:10:27.609Z,20.80
2023-05-15T23:12:56.830Z,21.10
2023-05-15T23:15:25.320Z,21.00
2023-05-15T23:17:54.243Z,21.50
2023-05-15T23:20:22.585Z,20.90
2023-05-15T23:22:51.384Z,20.60
2023-05-15T23:25:19.804Z,20.50
2023-05-15T23:27:48.166Z,20.60
2023-05-15T23:30:16.648Z,19.90
2023-05-15T23:32:45.539Z,22.70
2023-05-15T23:35:13.998Z,22.80
2023-05-15T23:37:43.163Z,22.10
2023-05-15T23:40:12.212Z,19.90
2023-05-15T23:42:41.213Z,21.60
2023-05-15T23:45:10.662Z,21.60
2023-05-15T23:47:39.508Z,20.30
2023-05-15T23:50:08.497Z,21.70
2023-05-15T23:52:36.888Z,19.60
2023-05-15T23:55:06.047Z,20.70
2023-05-15T23:57:35.399Z,21.50
